createdAt,value
2017-08-05T00:00:02.238Z,74440
2017-08-05T00:00:12.379Z,74437
2017-08-05T00:00:22.509Z,74434
2017-08-05T00:00:32.631Z,74439
2017-08-05T00:00:42.753Z,74443
2017-08-05T00:00:52.584Z,74431
2017-08-05T00:01:02.706Z,74432
2017-08-05T00:01:12.544Z,74428
2017-08-05T00:01:22.673Z,74432
2017-08-05T00:01:32.797Z,74436
2017-08-05T00:01:42.927Z,74430
2017-08-05T00:01:52.758Z,74428
2017-08-05T00:02:02.890Z,74427
2017-08-05T00:02:13.014Z,74427
2017-08-05T00:02:23.155Z,74429
2017-08-05T00:02:32.991Z,74428
2017-08-05T00:02:43.113Z,74427
2017-08-05T00:02:53.246Z,74426
2017-08-05T00:03:03.099Z,74443
2017-08-05T00:03:12.937Z,74442
2017-08-05T00:03:23.070Z,74441
2017-08-05T00:03:33.207Z,74439
2017-08-05T00:03:43.328Z,74437
2017-08-05T00:03:53.454Z,74438
2017-08-05T00:04:03.288Z,74439
2017-08-05T00:04:13.429Z,74433
2017-08-05T00:04:23.274Z,74431
2017-08-05T00:04:33.396Z,74433
2017-08-05T00:04:42.949Z,74433
2017-08-05T00:04:52.806Z,74428
2017-08-05T00:05:02.369Z,74438
2017-08-05T00:05:12.511Z,74435
2017-08-05T00:05:22.616Z,74439
2017-08-05T00:05:32.442Z,74438
2017-08-05T00:05:42.573Z,74442
2017-08-05T00:05:52.727Z,74442
2017-08-05T00:06:02.555Z,74435
2017-08-05T00:06:12.391Z,74436
2017-08-05T00:06:22.222Z,74435
2017-08-05T00:06:32.353Z,74436
2017-08-05T00:06:42.213Z,74432
2017-08-05T00:06:52.335Z,74433
2017-08-05T00:07:02.456Z,74435
2017-08-05T00:07:12.298Z,74436
2017-08-05T00:07:22.436Z,74436
2017-08-05T00:07:32.278Z,74437
2017-08-05T00:07:42.404Z,74434
2017-08-05T00:07:52.541Z,74433
2017-08-05T00:08:02.685Z,74432
2017-08-05T00:08:12.223Z,74429
2017-08-05T00:08:22.062Z,74427
2017-08-05T00:08:32.189Z,74421
2017-08-05T00:08:42.341Z,74425
2017-08-05T00:08:52.499Z,74428
2017-08-05T00:09:02.339Z,74430
2017-08-05T00:09:12.463Z,74432
2017-08-05T00:09:22.601Z,74433
2017-08-05T00:09:32.431Z,74430
2017-08-05T00:09:42.283Z,74431
2017-08-05T00:09:52.427Z,74436
2017-08-05T00:10:02.568Z,74434
2017-08-05T00:10:12.421Z,74440
2017-08-05T00:10:22.258Z,74439
2017-08-05T00:10:32.387Z,74441
2017-08-05T00:10:42.246Z,74429
2017-08-05T00:10:52.385Z,74416
2017-08-05T00:11:02.221Z,74426
2017-08-05T00:11:12.053Z,74430
2017-08-05T00:11:21.904Z,74429
2017-08-05T00:11:32.022Z,74428
2017-08-05T00:11:42.151Z,74433
2017-08-05T00:11:52.298Z,74441
2017-08-05T00:12:02.149Z,74443
2017-08-05T00:12:11.986Z,74441
2017-08-05T00:12:21.829Z,74435
2017-08-05T00:12:31.968Z,74433
2017-08-05T00:12:42.110Z,74439
2017-08-05T00:12:52.226Z,74436
2017-08-05T00:13:02.354Z,74440
2017-08-05T00:13:11.899Z,74440
2017-08-05T00:13:21.757Z,74442
2017-08-05T00:13:31.873Z,74445
2017-08-05T00:13:42.016Z,74446
2017-08-05T00:13:52.155Z,74446
2017-08-05T00:14:02.259Z,74444
2017-08-05T00:14:11.818Z,74442
2017-08-05T00:14:21.656Z,74438
2017-08-05T00:14:31.794Z,74442
2017-08-05T00:14:41.067Z,74446
2017-08-05T00:14:51.187Z,74442
2017-08-05T00:15:01.309Z,74436
2017-08-05T00:15:11.446Z,74433
2017-08-05T00:15:21.580Z,74433
2017-08-05T00:15:31.697Z,74435
2017-08-05T00:15:41.538Z,74434
2017-08-05T00:15:51.656Z,74430
2017-08-05T00:16:01.791Z,74428
2017-08-05T00:16:10.796Z,74430
2017-08-05T00:16:20.913Z,74433
2017-08-05T00:16:31.030Z,74442
2017-08-05T00:16:40.871Z,74444
2017-08-05T00:16:50.703Z,74438
2017-08-05T00:17:00.834Z,74432
2017-08-05T00:17:10.659Z,74424
2017-08-05T00:17:20.783Z,74423
2017-08-05T00:17:30.620Z,74422
2017-08-05T00:17:40.455Z,74429
2017-08-05T00:17:50.293Z,74426
2017-08-05T00:18:00.415Z,74422
2017-08-05T00:18:10.541Z,74420
2017-08-05T00:18:20.376Z,74422
2017-08-05T00:18:30.496Z,74413
2017-08-05T00:18:40.634Z,74416
2017-08-05T00:18:50.751Z,74412
2017-08-05T00:19:00.869Z,74416
2017-08-05T00:19:11.001Z,74415
2017-08-05T00:19:21.119Z,74412
2017-08-05T00:19:30.946Z,74402
2017-08-05T00:19:41.049Z,74418
2017-08-05T00:19:51.160Z,74421
2017-08-05T00:20:01.282Z,74421
2017-08-05T00:20:11.127Z,74419
2017-08-05T00:20:21.236Z,74421
2017-08-05T00:20:31.364Z,74422
2017-08-05T00:20:41.512Z,74422
2017-08-05T00:20:51.351Z,74418
2017-08-05T00:21:01.479Z,74420
2017-08-05T00:21:11.047Z,74414
2017-08-05T00:21:21.165Z,74417
2017-08-05T00:21:31.002Z,74414
2017-08-05T00:21:41.118Z,74415
2017-08-05T00:21:51.249Z,74413
2017-08-05T00:22:01.379Z,74415
2017-08-05T00:22:11.514Z,74419
2017-08-05T00:22:21.638Z,74420
2017-08-05T00:22:31.763Z,74423
2017-08-05T00:22:41.887Z,74427
2017-08-05T00:22:51.997Z,74429
2017-08-05T00:23:02.128Z,74430
2017-08-05T00:23:12.250Z,74427
2017-08-05T00:23:22.376Z,74428
2017-08-05T00:23:32.503Z,74430
2017-08-05T00:23:42.623Z,74428
2017-08-05T00:23:52.466Z,74429
2017-08-05T00:24:02.616Z,74430
2017-08-05T00:24:12.775Z,74431
2017-08-05T00:24:22.896Z,74432
2017-08-05T00:24:33.032Z,74431
2017-08-05T00:24:42.869Z,74431
2017-08-05T00:24:52.695Z,74428
2017-08-05T00:25:02.525Z,74424
2017-08-05T00:25:12.658Z,74423
2017-08-05T00:25:22.508Z,74427
2017-08-05T00:25:32.626Z,74428
2017-08-05T00:25:42.478Z,74432
2017-08-05T00:25:52.609Z,74429
2017-08-05T00:26:02.457Z,74427
2017-08-05T00:26:11.999Z,74426
2017-08-05T00:26:22.133Z,74427
2017-08-05T00:26:32.275Z,74429
2017-08-05T00:26:42.390Z,74430
2017-08-05T00:26:52.523Z,74427
2017-08-05T00:27:02.361Z,74427
2017-08-05T00:27:11.630Z,74430
2017-08-05T00:27:21.749Z,74427
2017-08-05T00:27:31.880Z,74417
2017-08-05T00:27:41.730Z,74422
2017-08-05T00:27:51.857Z,74417
2017-08-05T00:28:01.979Z,74423
2017-08-05T00:28:11.539Z,74420
2017-08-05T00:28:21.659Z,74421
2017-08-05T00:28:31.792Z,74422
2017-08-05T00:28:41.349Z,74418
2017-08-05T00:28:51.480Z,74419
2017-08-05T00:29:01.622Z,74416
2017-08-05T00:29:11.745Z,74418
2017-08-05T00:29:21.888Z,74422
2017-08-05T00:29:31.436Z,74419
2017-08-05T00:29:41.293Z,74422
2017-08-05T00:29:51.432Z,74417
2017-08-05T00:30:01.576Z,74414
2017-08-05T00:30:11.700Z,74417
2017-08-05T00:30:21.528Z,74414
2017-08-05T00:30:31.081Z,74408
2017-08-05T00:30:41.216Z,74407
2017-08-05T00:30:51.342Z,74414
2017-08-05T00:31:01.170Z,74418
2017-08-05T00:31:11.298Z,74420
2017-08-05T00:31:20.854Z,74419
2017-08-05T00:31:30.704Z,74420
2017-08-05T00:31:40.824Z,74419
2017-08-05T00:31:50.959Z,74422
2017-08-05T00:32:01.097Z,74425
2017-08-05T00:32:10.642Z,74422
2017-08-05T00:32:20.771Z,74421
2017-08-05T00:32:30.920Z,74422
2017-08-05T00:32:41.068Z,74419
2017-08-05T00:32:51.183Z,74418
2017-08-05T00:33:01.013Z,74417
2017-08-05T00:33:10.849Z,74419
2017-08-05T00:33:20.968Z,74418
2017-08-05T00:33:30.799Z,74416
2017-08-05T00:33:40.925Z,74416
2017-08-05T00:33:51.054Z,74418
2017-08-05T00:34:00.882Z,74413
2017-08-05T00:34:11.003Z,74413
2017-08-05T00:34:21.130Z,74421
2017-08-05T00:34:30.971Z,74426
2017-08-05T00:34:41.095Z,74422
2017-08-05T00:34:50.938Z,74425
2017-08-05T00:35:00.776Z,74426
2017-08-05T00:35:10.917Z,74424
2017-08-05T00:35:21.055Z,74427
2017-08-05T00:35:30.614Z,74427
2017-08-05T00:35:40.758Z,74425
2017-08-05T00:35:50.885Z,74426
2017-08-05T00:36:00.731Z,74428
2017-08-05T00:36:10.288Z,74429
2017-08-05T00:36:20.425Z,74430
2017-08-05T00:36:30.533Z,74428
2017-08-05T00:36:40.675Z,74427
2017-08-05T00:36:50.517Z,74426
2017-08-05T00:37:00.655Z,74425
2017-08-05T00:37:10.498Z,74426
2017-08-05T00:37:20.621Z,74428
2017-08-05T00:37:30.754Z,74427
2017-08-05T00:37:40.896Z,74428
2017-08-05T00:37:51.024Z,74427
2017-08-05T00:38:00.857Z,74428
2017-08-05T00:38:10.993Z,74429
2017-08-05T00:38:21.123Z,74425
2017-08-05T00:38:30.976Z,74431
2017-08-05T00:38:41.092Z,74430
2017-08-05T00:38:51.233Z,74428
2017-08-05T00:39:01.064Z,74425
2017-08-05T00:39:11.184Z,74425
2017-08-05T00:39:21.315Z,74425
2017-08-05T00:39:31.159Z,74423
2017-08-05T00:39:41.278Z,74420
2017-08-05T00:39:51.125Z,74422
2017-08-05T00:40:00.971Z,74421
2017-08-05T00:40:11.110Z,74421
2017-08-05T00:40:21.230Z,74419
2017-08-05T00:40:31.067Z,74421
2017-08-05T00:40:41.198Z,74421
2017-08-05T00:40:51.327Z,74416
2017-08-05T00:41:00.869Z,74422
2017-08-05T00:41:10.709Z,74427
2017-08-05T00:41:20.555Z,74422
2017-08-05T00:41:30.410Z,74419
2017-08-05T00:41:40.234Z,74415
2017-08-05T00:41:50.368Z,74416
2017-08-05T00:42:00.203Z,74413
2017-08-05T00:42:10.037Z,74419
2017-08-05T00:42:20.153Z,74419
2017-08-05T00:42:30.285Z,74424
2017-08-05T00:42:40.102Z,74424
2017-08-05T00:42:50.215Z,74428
2017-08-05T00:43:00.357Z,74429
2017-08-05T00:43:10.199Z,74425
2017-08-05T00:43:20.347Z,74428
2017-08-05T00:43:30.474Z,74428
2017-08-05T00:43:40.030Z,74425
2017-08-05T00:43:50.150Z,74427
2017-08-05T00:44:00.282Z,74424
2017-08-05T00:44:10.139Z,74426
2017-08-05T00:44:20.260Z,74425
2017-08-05T00:44:30.116Z,74425
2017-08-05T00:44:40.247Z,74422
2017-08-05T00:44:50.082Z,74420
2017-08-05T00:44:59.927Z,74424
2017-08-05T00:45:10.045Z,74423
2017-08-05T00:45:20.161Z,74425
2017-08-05T00:45:30.000Z,74423
2017-08-05T00:45:39.850Z,74421
2017-08-05T00:45:49.978Z,74421
2017-08-05T00:45:59.826Z,74418
2017-08-05T00:46:09.953Z,74419
2017-08-05T00:46:20.084Z,74419
2017-08-05T00:46:29.937Z,74422
2017-08-05T00:46:40.058Z,74422
2017-08-05T00:46:50.172Z,74417
2017-08-05T00:47:00.303Z,74418
2017-08-05T00:47:10.428Z,74415
2017-08-05T00:47:20.546Z,74417
2017-08-05T00:47:30.675Z,74417
2017-08-05T00:47:40.812Z,74416
2017-08-05T00:47:50.939Z,74416
2017-08-05T00:48:01.075Z,74418
2017-08-05T00:48:11.202Z,74417
2017-08-05T00:48:21.316Z,74421
2017-08-05T00:48:31.145Z,74419
2017-08-05T00:48:41.262Z,74421
2017-08-05T00:48:51.392Z,74418
2017-08-05T00:49:01.539Z,74422
2017-08-05T00:49:11.674Z,74415
2017-08-05T00:49:21.807Z,74417
2017-08-05T00:49:31.936Z,74414
2017-08-05T00:49:42.073Z,74416
2017-08-05T00:49:52.199Z,74419
2017-08-05T00:50:02.338Z,74423
2017-08-05T00:50:12.184Z,74424
2017-08-05T00:50:22.046Z,74425
2017-08-05T00:50:32.168Z,74424
2017-08-05T00:50:42.293Z,74418
2017-08-05T00:50:52.127Z,74416
2017-08-05T00:51:02.249Z,74414
2017-08-05T00:51:12.112Z,74415
2017-08-05T00:51:21.946Z,74416
2017-08-05T00:51:32.075Z,74416
2017-08-05T00:51:42.218Z,74416
2017-08-05T00:51:52.348Z,74415
2017-08-05T00:52:02.488Z,74415
2017-08-05T00:52:12.321Z,74419
2017-08-05T00:52:22.145Z,74418
2017-08-05T00:52:31.992Z,74421
2017-08-05T00:52:42.129Z,74425
2017-08-05T00:52:52.280Z,74421
2017-08-05T00:53:02.404Z,74417
2017-08-05T00:53:12.525Z,74415
2017-08-05T00:53:22.379Z,74413
2017-08-05T00:53:32.496Z,74412
2017-08-05T00:53:42.618Z,74413
2017-08-05T00:53:52.747Z,74410
2017-08-05T00:54:02.868Z,74410
2017-08-05T00:54:12.701Z,74411
2017-08-05T00:54:22.534Z,74410
2017-08-05T00:54:32.671Z,74415
2017-08-05T00:54:42.796Z,74416
2017-08-05T00:54:52.937Z,74421
2017-08-05T00:55:02.772Z,74421
2017-08-05T00:55:12.628Z,74420
2017-08-05T00:55:22.468Z,74422
2017-08-05T00:55:32.594Z,74419
2017-08-05T00:55:42.711Z,74410
2017-08-05T00:55:52.846Z,74413
2017-08-05T00:56:02.701Z,74414
2017-08-05T00:56:12.831Z,74418
2017-08-05T00:56:22.954Z,74420
2017-08-05T00:56:33.073Z,74419
2017-08-05T00:56:42.918Z,74421
2017-08-05T00:56:52.748Z,74423
2017-08-05T00:57:02.878Z,74424
2017-08-05T00:57:12.989Z,74422
2017-08-05T00:57:23.100Z,74421
2017-08-05T00:57:32.928Z,74423
2017-08-05T00:57:42.760Z,74420
2017-08-05T00:57:52.591Z,74419
2017-08-05T00:58:02.724Z,74420
2017-08-05T00:58:12.562Z,74423
2017-08-05T00:58:22.683Z,74424
2017-08-05T00:58:32.801Z,74418
2017-08-05T00:58:42.647Z,74418
2017-08-05T00:58:52.773Z,74415
2017-08-05T00:59:02.914Z,74417
2017-08-05T00:59:13.027Z,74415
2017-08-05T00:59:23.160Z,74407
2017-08-05T00:59:32.981Z,74412
2017-08-05T00:59:43.109Z,74414
2017-08-05T00:59:53.237Z,74410
2017-08-05T01:00:03.369Z,74410
2017-08-05T01:00:13.550Z,74410
2017-08-05T01:00:23.671Z,74413
2017-08-05T01:00:33.814Z,74414
2017-08-05T01:00:43.646Z,74413
2017-08-05T01:00:53.762Z,74419
2017-08-05T01:01:03.334Z,74414
2017-08-05T01:01:13.442Z,74414
2017-08-05T01:01:23.273Z,74417
2017-08-05T01:01:33.101Z,74414
2017-08-05T01:01:43.215Z,74418
2017-08-05T01:01:53.327Z,74412
2017-08-05T01:02:03.457Z,74411
2017-08-05T01:02:13.289Z,74412
2017-08-05T01:02:23.419Z,74411
2017-08-05T01:02:33.543Z,74409
2017-08-05T01:02:43.379Z,74410
2017-08-05T01:02:53.509Z,74410
2017-08-05T01:03:03.055Z,74411
2017-08-05T01:03:12.893Z,74415
2017-08-05T01:03:22.733Z,74414
2017-08-05T01:03:32.859Z,74415
2017-08-05T01:03:42.423Z,74413
2017-08-05T01:03:52.261Z,74412
2017-08-05T01:04:02.099Z,74408
2017-08-05T01:04:11.943Z,74412
2017-08-05T01:04:22.078Z,74412
2017-08-05T01:04:32.220Z,74411
2017-08-05T01:04:42.041Z,74411
2017-08-05T01:04:52.158Z,74410
2017-08-05T01:05:02.009Z,74407
2017-08-05T01:05:11.868Z,74411
2017-08-05T01:05:21.699Z,74408
2017-08-05T01:05:31.823Z,74404
2017-08-05T01:05:41.952Z,74406
2017-08-05T01:05:52.067Z,74409
2017-08-05T01:06:02.188Z,74409
2017-08-05T01:06:12.311Z,74402
2017-08-05T01:06:22.438Z,74402
2017-08-05T01:06:32.570Z,74402
2017-08-05T01:06:42.419Z,74408
2017-08-05T01:06:52.548Z,74413
2017-08-05T01:07:02.677Z,74414
2017-08-05T01:07:12.807Z,74412
2017-08-05T01:07:22.931Z,74409
2017-08-05T01:07:33.063Z,74407
2017-08-05T01:07:43.184Z,74408
2017-08-05T01:07:53.019Z,74406
2017-08-05T01:08:02.834Z,74409
2017-08-05T01:08:12.383Z,74415
2017-08-05T01:08:22.499Z,74412
2017-08-05T01:08:32.640Z,74411
2017-08-05T01:08:42.757Z,74409
2017-08-05T01:08:52.304Z,74408
2017-08-05T01:09:02.137Z,74410
2017-08-05T01:09:11.966Z,74405
2017-08-05T01:09:21.800Z,74407
2017-08-05T01:09:31.928Z,74406
2017-08-05T01:09:42.063Z,74407
2017-08-05T01:09:52.179Z,74414
2017-08-05T01:10:02.289Z,74414
2017-08-05T01:10:12.436Z,74413
2017-08-05T01:10:22.575Z,74408
2017-08-05T01:10:32.713Z,74410
2017-08-05T01:10:42.859Z,74403
2017-08-05T01:10:52.973Z,74406
2017-08-05T01:11:03.119Z,74405
2017-08-05T01:11:12.956Z,74408
2017-08-05T01:11:22.784Z,74407
2017-08-05T01:11:32.935Z,74412
2017-08-05T01:11:43.072Z,74416
2017-08-05T01:11:53.213Z,74417
2017-08-05T01:12:03.064Z,74413
2017-08-05T01:12:13.189Z,74414
2017-08-05T01:12:22.753Z,74411
2017-08-05T01:12:32.882Z,74408
2017-08-05T01:12:42.707Z,74407
2017-08-05T01:12:52.850Z,74408
2017-08-05T01:13:02.982Z,74410
2017-08-05T01:13:13.108Z,74412
2017-08-05T01:13:23.227Z,74409
2017-08-05T01:13:33.068Z,74406
2017-08-05T01:13:43.194Z,74411
2017-08-05T01:13:53.316Z,74412
2017-08-05T01:14:03.465Z,74411
2017-08-05T01:14:13.601Z,74412
2017-08-05T01:14:23.733Z,74409
2017-08-05T01:14:33.844Z,74414
2017-08-05T01:14:43.996Z,74411
2017-08-05T01:14:54.131Z,74409
2017-08-05T01:15:04.253Z,74409
2017-08-05T01:15:14.378Z,74408
2017-08-05T01:15:24.500Z,74413
2017-08-05T01:15:34.637Z,74412
2017-08-05T01:15:44.487Z,74416
2017-08-05T01:15:54.612Z,74413
2017-08-05T01:16:04.449Z,74413
2017-08-05T01:16:14.571Z,74408
2017-08-05T01:16:24.413Z,74406
2017-08-05T01:16:34.244Z,74408
2017-08-05T01:16:44.354Z,74413
2017-08-05T01:16:54.474Z,74411
2017-08-05T01:17:04.013Z,74407
2017-08-05T01:17:14.131Z,74410
2017-08-05T01:17:24.250Z,74410
2017-08-05T01:17:34.385Z,74410
2017-08-05T01:17:44.230Z,74412
2017-08-05T01:17:54.351Z,74411
2017-08-05T01:18:04.480Z,74411
2017-08-05T01:18:14.631Z,74411
2017-08-05T01:18:24.766Z,74413
2017-08-05T01:18:34.309Z,74411
2017-08-05T01:18:44.449Z,74409
2017-08-05T01:18:54.585Z,74409
2017-08-05T01:19:04.713Z,74404
2017-08-05T01:19:14.555Z,74394
2017-08-05T01:19:24.112Z,74392
2017-08-05T01:19:34.235Z,74397
2017-08-05T01:19:44.374Z,74397
2017-08-05T01:19:54.512Z,74400
2017-08-05T01:20:04.671Z,74398
2017-08-05T01:20:14.800Z,74398
2017-08-05T01:20:24.917Z,74402
2017-08-05T01:20:35.037Z,74402
2017-08-05T01:20:44.872Z,74403
2017-08-05T01:20:55.004Z,74406
2017-08-05T01:21:05.140Z,74397
2017-08-05T01:21:14.988Z,74399
2017-08-05T01:21:24.825Z,74401
2017-08-05T01:21:34.666Z,74401
2017-08-05T01:21:44.500Z,74398
2017-08-05T01:21:54.627Z,74399
2017-08-05T01:22:04.749Z,74402
2017-08-05T01:22:14.589Z,74404
2017-08-05T01:22:24.752Z,74410
2017-08-05T01:22:34.898Z,74413
2017-08-05T01:22:45.044Z,74411
2017-08-05T01:22:54.885Z,74410
2017-08-05T01:23:05.026Z,74407
2017-08-05T01:23:14.586Z,74407
2017-08-05T01:23:24.127Z,74408
2017-08-05T01:23:34.262Z,74410
2017-08-05T01:23:44.386Z,74410
2017-08-05T01:23:53.630Z,74403
2017-08-05T01:24:03.476Z,74406
2017-08-05T01:24:13.601Z,74404
2017-08-05T01:24:23.732Z,74403
2017-08-05T01:24:33.573Z,74403
2017-08-05T01:24:43.697Z,74405
2017-08-05T01:24:53.828Z,74403
2017-08-05T01:25:03.653Z,74404
2017-08-05T01:25:13.791Z,74402
2017-08-05T01:25:23.631Z,74405
2017-08-05T01:25:33.748Z,74409
2017-08-05T01:25:43.570Z,74412
2017-08-05T01:25:53.690Z,74414
2017-08-05T01:26:03.234Z,74410
2017-08-05T01:26:13.082Z,74412
2017-08-05T01:26:22.649Z,74411
2017-08-05T01:26:32.792Z,74412
2017-08-05T01:26:42.919Z,74410
2017-08-05T01:26:53.042Z,74407
2017-08-05T01:27:03.180Z,74409
2017-08-05T01:27:13.317Z,74409
2017-08-05T01:27:23.456Z,74404
2017-08-05T01:27:33.583Z,74408
2017-08-05T01:27:43.731Z,74407
2017-08-05T01:27:53.861Z,74408
2017-08-05T01:28:03.994Z,74413
2017-08-05T01:28:14.132Z,74414
2017-08-05T01:28:24.251Z,74418
2017-08-05T01:28:34.384Z,74417
2017-08-05T01:28:44.515Z,74413
2017-08-05T01:28:54.634Z,74409
2017-08-05T01:29:04.757Z,74413
2017-08-05T01:29:14.579Z,74409
2017-08-05T01:29:24.703Z,74416
2017-08-05T01:29:34.550Z,74409
2017-08-05T01:29:44.681Z,74414
2017-08-05T01:29:54.831Z,74415
2017-08-05T01:30:04.684Z,74412
2017-08-05T01:30:14.238Z,74417
2017-08-05T01:30:24.360Z,74410
2017-08-05T01:30:34.488Z,74404
2017-08-05T01:30:44.610Z,74403
2017-08-05T01:30:54.736Z,74400
2017-08-05T01:31:04.858Z,74402
2017-08-05T01:31:14.988Z,74404
2017-08-05T01:31:24.820Z,74411
2017-08-05T01:31:34.974Z,74413
2017-08-05T01:31:45.086Z,74409
2017-08-05T01:31:55.209Z,74412
2017-08-05T01:32:05.339Z,74410
2017-08-05T01:32:15.460Z,74412
2017-08-05T01:32:25.572Z,74416
2017-08-05T01:32:35.699Z,74412
2017-08-05T01:32:45.818Z,74407
2017-08-05T01:32:55.941Z,74407
2017-08-05T01:33:06.068Z,74409
2017-08-05T01:33:16.190Z,74412
2017-08-05T01:33:26.316Z,74411
2017-08-05T01:33:36.441Z,74414
2017-08-05T01:33:46.269Z,74410
2017-08-05T01:33:56.389Z,74408
2017-08-05T01:34:06.527Z,74408
2017-08-05T01:34:16.365Z,74405
2017-08-05T01:34:26.510Z,74406
2017-08-05T01:34:36.622Z,74406
2017-08-05T01:34:46.454Z,74405
2017-08-05T01:34:56.286Z,74406
2017-08-05T01:35:06.182Z,74404
2017-08-05T01:35:16.040Z,74407
2017-08-05T01:35:25.896Z,74405
2017-08-05T01:35:36.038Z,74405
2017-08-05T01:35:46.174Z,74403
2017-08-05T01:35:55.730Z,74402
2017-08-05T01:36:05.577Z,74404
2017-08-05T01:36:15.710Z,74405
2017-08-05T01:36:25.551Z,74407
2017-08-05T01:36:35.686Z,74406
2017-08-05T01:36:45.530Z,74406
2017-08-05T01:36:55.651Z,74408
2017-08-05T01:37:05.512Z,74409
2017-08-05T01:37:15.634Z,74407
2017-08-05T01:37:25.756Z,74406
2017-08-05T01:37:35.590Z,74402
2017-08-05T01:37:45.702Z,74402
2017-08-05T01:37:55.848Z,74403
2017-08-05T01:38:05.397Z,74404
2017-08-05T01:38:15.515Z,74405
2017-08-05T01:38:25.631Z,74404
2017-08-05T01:38:35.454Z,74406
2017-08-05T01:38:45.572Z,74407
2017-08-05T01:38:55.702Z,74405
2017-08-05T01:39:05.547Z,74408
2017-08-05T01:39:15.677Z,74408
2017-08-05T01:39:25.809Z,74408
2017-08-05T01:39:35.938Z,74407
2017-08-05T01:39:46.067Z,74405
2017-08-05T01:39:56.194Z,74402
2017-08-05T01:40:06.328Z,74403
2017-08-05T01:40:15.904Z,74402
2017-08-05T01:40:26.034Z,74401
2017-08-05T01:40:36.162Z,74403
2017-08-05T01:40:46.286Z,74404
2017-08-05T01:40:56.414Z,74402
2017-08-05T01:41:06.540Z,74401
2017-08-05T01:41:16.654Z,74402
2017-08-05T01:41:26.773Z,74407
2017-08-05T01:41:36.896Z,74405
2017-08-05T01:41:47.031Z,74403
2017-08-05T01:41:56.881Z,74404
2017-08-05T01:42:07.003Z,74401
2017-08-05T01:42:17.122Z,74402
2017-08-05T01:42:26.672Z,74405
2017-08-05T01:42:36.797Z,74402
2017-08-05T01:42:46.919Z,74402
2017-08-05T01:42:57.071Z,74405
2017-08-05T01:43:06.910Z,74402
2017-08-05T01:43:17.050Z,74398
2017-08-05T01:43:26.890Z,74400
2017-08-05T01:43:37.018Z,74402
2017-08-05T01:43:46.872Z,74406
2017-08-05T01:43:57.004Z,74404
2017-08-05T01:44:07.147Z,74403
2017-08-05T01:44:16.989Z,74407
2017-08-05T01:44:27.131Z,74406
2017-08-05T01:44:37.266Z,74406
2017-08-05T01:44:47.387Z,74397
2017-08-05T01:44:57.234Z,74398
2017-08-05T01:45:07.058Z,74396
2017-08-05T01:45:16.903Z,74399
2017-08-05T01:45:27.031Z,74401
2017-08-05T01:45:37.162Z,74405
2017-08-05T01:45:47.292Z,74401
2017-08-05T01:45:57.422Z,74402
2017-08-05T01:46:07.555Z,74403
2017-08-05T01:46:17.701Z,74405
2017-08-05T01:46:27.532Z,74403
2017-08-05T01:46:37.086Z,74405
2017-08-05T01:46:47.212Z,74405
2017-08-05T01:46:57.343Z,74401
2017-08-05T01:47:07.164Z,74401
2017-08-05T01:47:17.276Z,74400
2017-08-05T01:47:27.389Z,74398
2017-08-05T01:47:37.225Z,74399
2017-08-05T01:47:47.346Z,74400
2017-08-05T01:47:57.451Z,74401
2017-08-05T01:48:06.990Z,74405
2017-08-05T01:48:17.108Z,74400
2017-08-05T01:48:26.952Z,74402
2017-08-05T01:48:36.795Z,74402
2017-08-05T01:48:46.622Z,74400
2017-08-05T01:48:56.446Z,74402
2017-08-05T01:49:06.290Z,74404
2017-08-05T01:49:16.128Z,74402
2017-08-05T01:49:26.267Z,74404
2017-08-05T01:49:36.108Z,74403
2017-08-05T01:49:46.242Z,74402
2017-08-05T01:49:56.103Z,74402
2017-08-05T01:50:06.231Z,74405
2017-08-05T01:50:16.075Z,74406
2017-08-05T01:50:25.930Z,74405
2017-08-05T01:50:35.770Z,74404
2017-08-05T01:50:45.908Z,74401
2017-08-05T01:50:56.021Z,74396
2017-08-05T01:51:06.152Z,74402
2017-08-05T01:51:16.272Z,74399
2017-08-05T01:51:26.398Z,74393
2017-08-05T01:51:36.226Z,74391
2017-08-05T01:51:46.368Z,74388
2017-08-05T01:51:56.510Z,74391
2017-08-05T01:52:06.632Z,74393
2017-08-05T01:52:16.758Z,74392
2017-08-05T01:52:26.873Z,74396
2017-08-05T01:52:36.993Z,74399
2017-08-05T01:52:47.122Z,74398
2017-08-05T01:52:57.251Z,74397
2017-08-05T01:53:07.369Z,74396
2017-08-05T01:53:17.504Z,74394
2017-08-05T01:53:27.622Z,74391
2017-08-05T01:53:37.465Z,74396
2017-08-05T01:53:47.310Z,74397
2017-08-05T01:53:57.476Z,74394
2017-08-05T01:54:07.614Z,74395
2017-08-05T01:54:17.744Z,74392
2017-08-05T01:54:27.599Z,74391
2017-08-05T01:54:37.721Z,74392
2017-08-05T01:54:47.858Z,74397
2017-08-05T01:54:57.724Z,74399
2017-08-05T01:55:07.839Z,74401
2017-08-05T01:55:17.687Z,74399
2017-08-05T01:55:27.813Z,74400
2017-08-05T01:55:37.663Z,74396
2017-08-05T01:55:47.800Z,74398
2017-08-05T01:55:57.934Z,74394
2017-08-05T01:56:08.055Z,74395
2017-08-05T01:56:17.902Z,74395
2017-08-05T01:56:27.765Z,74394
2017-08-05T01:56:37.899Z,74395
2017-08-05T01:56:47.739Z,74395
2017-08-05T01:56:57.859Z,74393
2017-08-05T01:57:07.994Z,74394
2017-08-05T01:57:18.127Z,74397
2017-08-05T01:57:28.262Z,74396
2017-08-05T01:57:38.092Z,74396
2017-08-05T01:57:48.230Z,74397
2017-08-05T01:57:58.055Z,74393
2017-08-05T01:58:07.895Z,74393
2017-08-05T01:58:17.724Z,74391
2017-08-05T01:58:27.847Z,74394
2017-08-05T01:58:37.961Z,74399
2017-08-05T01:58:48.082Z,74398
2017-08-05T01:58:57.943Z,74397
2017-08-05T01:59:07.794Z,74397
2017-08-05T01:59:17.637Z,74394
2017-08-05T01:59:27.777Z,74394
2017-08-05T01:59:37.914Z,74395
2017-08-05T01:59:48.051Z,74395
2017-08-05T01:59:58.189Z,74398
2017-08-05T02:00:08.024Z,74399
2017-08-05T02:00:18.179Z,74398
2017-08-05T02:00:28.012Z,74398
2017-08-05T02:00:38.143Z,74396
2017-08-05T02:00:48.282Z,74394
2017-08-05T02:00:58.405Z,74393
2017-08-05T02:01:08.530Z,74392
2017-08-05T02:01:18.647Z,74395
2017-08-05T02:01:28.209Z,74396
2017-08-05T02:01:38.324Z,74397
2017-08-05T02:01:48.461Z,74404
2017-08-05T02:01:58.583Z,74403
2017-08-05T02:02:08.415Z,74404
2017-08-05T02:02:18.545Z,74407
2017-08-05T02:02:28.678Z,74401
2017-08-05T02:02:38.514Z,74401
2017-08-05T02:02:48.637Z,74395
2017-08-05T02:02:58.490Z,74395
2017-08-05T02:03:08.605Z,74393
2017-08-05T02:03:18.451Z,74391
2017-08-05T02:03:28.573Z,74389
2017-08-05T02:03:38.722Z,74389
2017-08-05T02:03:48.872Z,74389
2017-08-05T02:03:59.017Z,74391
2017-08-05T02:04:08.868Z,74391
2017-08-05T02:04:18.994Z,74391
2017-08-05T02:04:29.131Z,74384
2017-08-05T02:04:38.972Z,74391
2017-08-05T02:04:48.812Z,74388
2017-08-05T02:04:58.942Z,74391
2017-08-05T02:05:08.769Z,74391
2017-08-05T02:05:18.894Z,74391
2017-08-05T02:05:29.012Z,74395
2017-08-05T02:05:38.853Z,74394
2017-08-05T02:05:48.967Z,74396
2017-08-05T02:05:58.821Z,74391
2017-08-05T02:06:08.931Z,74389
2017-08-05T02:06:19.072Z,74393
2017-08-05T02:06:29.197Z,74391
2017-08-05T02:06:39.329Z,74387
2017-08-05T02:06:49.464Z,74386
2017-08-05T02:06:59.597Z,74391
2017-08-05T02:07:09.717Z,74386
2017-08-05T02:07:19.269Z,74389
2017-08-05T02:07:29.409Z,74389
2017-08-05T02:07:39.532Z,74388
2017-08-05T02:07:49.370Z,74392
2017-08-05T02:07:59.205Z,74392
2017-08-05T02:08:09.052Z,74392
2017-08-05T02:08:19.167Z,74397
2017-08-05T02:08:29.277Z,74394
2017-08-05T02:08:39.401Z,74393
2017-08-05T02:08:49.516Z,74395